Terminal Aerodrome Forecast
Issued by NWS Pendleton, OR

Home | Current Version | Previous Version | Text Only | Print | Product List | Glossary On
Versions: 1 2 3 4 5 6 7 8 9 10 11 12 13
000
FTUS46 KPDT 301740
TAFPDT
TAF
KPDT 301740Z 3018/0118 26022G34KT P6SM SCT045 SCT250
     FM302000 27026G34KT P6SM SCT050 SCT200
     FM010100 25018G26KT P6SM BKN060
     FM010900 VRB05KT P6SM BKN050
     FM011400 17005KT P6SM SCT050 BKN130 BKN150=

USA.gov is the U.S. government's official web portal to all federal, state and local government web resources and services.